createdAt,value
2023-05-02T00:02:04.084Z,10.10
2023-05-02T00:04:33.139Z,8.63
2023-05-02T00:06:59.868Z,6.85
2023-05-02T00:09:26.551Z,9.63
2023-05-02T00:11:53.107Z,9.15
2023-05-02T00:14:21.050Z,7.47
2023-05-02T00:16:48.079Z,9.55
2023-05-02T00:19:14.792Z,10.20
2023-05-02T00:21:49.966Z,9.48
2023-05-02T00:24:20.063Z,8.73
2023-05-02T00:26:46.703Z,8.63
2023-05-02T00:29:13.264Z,8.50
2023-05-02T00:31:41.239Z,9.02
2023-05-02T00:34:07.946Z,9.23
2023-05-02T00:36:34.530Z,9.35
2023-05-02T00:39:01.278Z,10.18
2023-05-02T00:41:27.848Z,9.43
2023-05-02T00:43:54.431Z,8.60
2023-05-02T00:46:21.114Z,11.02
2023-05-02T00:48:48.000Z,8.10
2023-05-02T00:51:14.582Z,15.20
2023-05-02T00:53:41.726Z,8.52
2023-05-02T00:56:09.469Z,10.80
2023-05-02T00:58:38.735Z,9.25
2023-05-02T01:01:29.415Z,7.95
2023-05-02T01:04:50.746Z,8.82
2023-05-02T01:08:03.460Z,7.88
2023-05-02T01:10:50.148Z,10.90
2023-05-02T01:13:25.697Z,9.18
2023-05-02T01:15:55.853Z,11.75
2023-05-02T01:18:26.601Z,9.38
2023-05-02T01:21:07.733Z,9.32
2023-05-02T01:24:01.361Z,11.02
2023-05-02T01:27:17.245Z,10.95
2023-05-02T01:29:45.982Z,15.52
2023-05-02T01:32:15.013Z,9.00
2023-05-02T01:34:44.590Z,11.32
2023-05-02T01:37:13.646Z,9.57
2023-05-02T01:39:44.242Z,11.20
2023-05-02T01:42:13.161Z,11.25
2023-05-02T01:44:42.369Z,12.23
2023-05-02T01:47:10.082Z,11.30
2023-05-02T01:49:37.839Z,11.00
2023-05-02T01:52:11.364Z,13.77
2023-05-02T01:54:40.104Z,15.88
2023-05-02T01:57:09.475Z,13.82
2023-05-02T01:59:38.979Z,14.68
2023-05-02T02:02:08.424Z,13.80
2023-05-02T02:04:37.894Z,13.65
2023-05-02T02:07:09.490Z,14.05
2023-05-02T02:09:36.387Z,15.57
2023-05-02T02:12:17.585Z,13.07
2023-05-02T02:14:51.215Z,15.73
2023-05-02T02:17:37.317Z,16.92
2023-05-02T02:20:09.617Z,18.05
2023-05-02T02:22:39.491Z,13.85
2023-05-02T02:25:11.126Z,14.93
2023-05-02T02:27:39.187Z,17.00
2023-05-02T02:30:07.232Z,16.77
2023-05-02T02:32:33.900Z,19.55
2023-05-02T02:35:01.452Z,20.25
2023-05-02T02:37:39.764Z,17.25
2023-05-02T02:40:49.529Z,16.38
2023-05-02T02:43:28.469Z,16.95
2023-05-02T02:46:26.185Z,19.50
2023-05-02T02:49:18.692Z,18.67
2023-05-02T02:51:54.386Z,17.88
2023-05-02T02:54:58.675Z,15.70
2023-05-02T02:57:59.035Z,18.40
2023-05-02T03:00:28.295Z,21.48
2023-05-02T03:02:56.650Z,18.10
2023-05-02T03:05:29.074Z,21.35
2023-05-02T03:07:55.890Z,18.45
2023-05-02T03:10:23.191Z,18.83
2023-05-02T03:12:50.323Z,17.25
2023-05-02T03:15:59.029Z,20.15
2023-05-02T03:18:25.821Z,23.80
2023-05-02T03:20:52.631Z,21.90
2023-05-02T03:23:19.250Z,19.77
2023-05-02T03:25:45.833Z,21.60
2023-05-02T03:28:12.383Z,18.60
2023-05-02T03:30:40.662Z,17.13
2023-05-02T03:33:08.714Z,20.00
2023-05-02T03:35:35.399Z,17.50
2023-05-02T03:38:02.007Z,18.75
2023-05-02T03:40:28.643Z,20.55
2023-05-02T03:42:55.270Z,20.27
2023-05-02T03:45:21.841Z,24.88
2023-05-02T03:47:48.510Z,26.17
2023-05-02T03:50:15.276Z,28.48
2023-05-02T03:52:41.932Z,28.23
2023-05-02T03:55:08.744Z,34.38
2023-05-02T03:57:35.355Z,29.45
2023-05-02T04:00:02.223Z,31.20
2023-05-02T04:02:30.340Z,31.02
2023-05-02T04:04:57.086Z,33.80
2023-05-02T04:07:25.678Z,31.33
2023-05-02T04:09:52.235Z,30.70
2023-05-02T04:12:18.846Z,32.40
2023-05-02T04:14:45.516Z,32.05
2023-05-02T04:17:12.350Z,33.72
2023-05-02T04:19:38.959Z,32.50
2023-05-02T04:22:05.634Z,33.80
2023-05-02T04:24:32.210Z,32.97
2023-05-02T04:26:58.849Z,32.55
2023-05-02T04:29:25.467Z,35.63
2023-05-02T04:31:52.096Z,32.25
2023-05-02T04:34:18.665Z,36.85
2023-05-02T04:36:46.855Z,38.17
2023-05-02T04:39:13.535Z,40.55
2023-05-02T04:41:40.596Z,39.15
2023-05-02T04:44:07.205Z,33.88
2023-05-02T04:46:33.877Z,35.17
2023-05-02T04:49:00.700Z,42.75
2023-05-02T04:51:29.006Z,39.47
2023-05-02T04:53:55.588Z,39.38
2023-05-02T04:56:22.158Z,40.25
2023-05-02T04:58:53.787Z,42.13
2023-05-02T05:01:20.522Z,38.42
2023-05-02T05:03:47.247Z,41.65
2023-05-02T05:06:13.958Z,39.53
2023-05-02T05:08:40.671Z,41.17
2023-05-02T05:11:07.304Z,38.25
2023-05-02T05:13:34.125Z,40.63
2023-05-02T05:16:00.703Z,38.50
2023-05-02T05:18:27.788Z,36.80
2023-05-02T05:20:54.670Z,34.97
2023-05-02T05:23:21.381Z,45.17
2023-05-02T05:25:48.125Z,36.92
2023-05-02T05:28:14.755Z,33.85
2023-05-02T05:30:41.510Z,36.35
2023-05-02T05:33:08.106Z,36.97
2023-05-02T05:35:34.930Z,35.83
2023-05-02T05:38:01.582Z,36.40
2023-05-02T05:40:28.167Z,34.00
2023-05-02T05:42:54.774Z,32.85
2023-05-02T05:45:21.437Z,32.72
2023-05-02T05:47:48.039Z,31.42
2023-05-02T05:50:14.743Z,28.00
2023-05-02T05:52:41.343Z,31.13
2023-05-02T05:55:08.591Z,28.42
2023-05-02T05:57:35.271Z,30.10
2023-05-02T06:00:02.301Z,26.63
2023-05-02T06:02:29.402Z,25.00
2023-05-02T06:04:56.054Z,24.73
2023-05-02T06:07:23.440Z,20.45
2023-05-02T06:09:50.151Z,16.17
2023-05-02T06:12:16.903Z,21.77
2023-05-02T06:14:43.631Z,19.60
2023-05-02T06:17:10.253Z,19.25
2023-05-02T06:19:36.832Z,17.15
2023-05-02T06:22:03.434Z,16.17
2023-05-02T06:24:30.009Z,17.05
2023-05-02T06:26:56.587Z,14.82
2023-05-02T06:29:23.244Z,17.27
2023-05-02T06:31:51.214Z,19.95
2023-05-02T06:34:17.939Z,18.50
2023-05-02T06:36:44.550Z,16.63
2023-05-02T06:39:11.541Z,19.10
2023-05-02T06:41:49.221Z,16.58
2023-05-02T06:44:16.229Z,18.15
2023-05-02T06:46:43.311Z,18.83
2023-05-02T06:49:10.230Z,18.20
2023-05-02T06:51:36.788Z,20.90
2023-05-02T06:54:03.597Z,19.55
2023-05-02T06:56:31.067Z,19.75
2023-05-02T06:58:57.669Z,21.75
2023-05-02T07:01:24.415Z,20.45
2023-05-02T07:03:51.943Z,23.65
2023-05-02T07:06:18.926Z,20.40
2023-05-02T07:08:45.816Z,23.13
2023-05-02T07:11:12.378Z,19.13
2023-05-02T07:13:38.980Z,21.80
2023-05-02T07:16:07.330Z,21.77
2023-05-02T07:18:33.927Z,25.35
2023-05-02T07:21:01.339Z,25.85
2023-05-02T07:23:28.260Z,23.92
2023-05-02T07:25:54.920Z,22.65
2023-05-02T07:28:21.625Z,26.55
2023-05-02T07:30:48.223Z,25.88
2023-05-02T07:33:15.637Z,27.08
2023-05-02T07:35:42.915Z,26.08
2023-05-02T07:38:09.582Z,23.98
2023-05-02T07:40:36.264Z,24.90
2023-05-02T07:43:04.529Z,26.75
2023-05-02T07:45:31.130Z,27.73
2023-05-02T07:47:57.824Z,23.45
2023-05-02T07:50:24.727Z,23.33
2023-05-02T07:52:51.462Z,25.98
2023-05-02T07:55:18.226Z,28.30
2023-05-02T07:57:44.876Z,26.27
2023-05-02T08:00:12.211Z,28.38
2023-05-02T08:02:38.958Z,28.08
2023-05-02T08:05:06.692Z,26.67
2023-05-02T08:07:35.221Z,25.55
2023-05-02T08:10:02.242Z,20.13
2023-05-02T08:12:29.210Z,23.65
2023-05-02T08:14:55.990Z,20.75
2023-05-02T08:17:23.037Z,21.02
2023-05-02T08:19:49.644Z,20.20
2023-05-02T08:22:16.250Z,22.30
2023-05-02T08:24:42.817Z,22.98
2023-05-02T08:27:09.404Z,19.75
2023-05-02T08:29:36.006Z,20.48
2023-05-02T08:32:02.802Z,21.63
2023-05-02T08:34:29.503Z,20.90
2023-05-02T08:36:58.663Z,23.98
2023-05-02T08:39:25.332Z,26.92
2023-05-02T08:41:52.015Z,20.88
2023-05-02T08:44:18.643Z,22.15
2023-05-02T08:46:46.016Z,18.35
2023-05-02T08:49:15.754Z,19.80
2023-05-02T08:51:45.178Z,18.90
2023-05-02T08:54:16.891Z,32.38
2023-05-02T08:56:45.336Z,17.27
2023-05-02T08:59:11.894Z,19.08
2023-05-02T09:01:41.609Z,16.00
2023-05-02T09:04:08.509Z,15.45
2023-05-02T09:06:36.528Z,14.23
2023-05-02T09:09:03.415Z,16.33
2023-05-02T09:11:30.130Z,15.43
2023-05-02T09:13:58.857Z,16.20
2023-05-02T09:16:27.010Z,15.45
2023-05-02T09:18:56.284Z,14.90
2023-05-02T09:21:45.282Z,18.92
2023-05-02T09:24:22.631Z,15.48
2023-05-02T09:27:05.634Z,15.73
2023-05-02T09:29:38.527Z,13.20
2023-05-02T09:32:06.487Z,11.05
2023-05-02T09:34:34.338Z,13.18
2023-05-02T09:37:01.410Z,11.30
2023-05-02T09:39:29.153Z,12.15
2023-05-02T09:41:57.575Z,9.80
2023-05-02T09:44:27.304Z,8.00
2023-05-02T09:46:57.200Z,4.97
2023-05-02T09:49:39.897Z,4.00
2023-05-02T09:52:18.345Z,3.33
2023-05-02T09:54:46.612Z,4.72
2023-05-02T09:57:13.821Z,4.18
2023-05-02T09:59:41.073Z,5.50
2023-05-02T10:02:10.954Z,3.88
2023-05-02T10:04:39.889Z,6.30
2023-05-02T10:07:10.216Z,4.95
2023-05-02T10:09:43.664Z,3.17
2023-05-02T10:12:14.901Z,6.13
2023-05-02T10:14:53.846Z,16.42
2023-05-02T10:17:31.486Z,5.30
2023-05-02T10:20:05.226Z,3.30
2023-05-02T10:22:34.521Z,4.78
2023-05-02T10:25:03.748Z,7.07
2023-05-02T10:27:31.767Z,4.50
2023-05-02T10:30:00.208Z,3.38
2023-05-02T10:32:30.371Z,10.68
2023-05-02T10:34:57.818Z,8.77
2023-05-02T10:37:27.547Z,4.10
2023-05-02T10:39:54.522Z,2.05
2023-05-02T10:42:21.650Z,2.60
2023-05-02T10:44:50.335Z,3.92
2023-05-02T10:47:27.290Z,1.92
2023-05-02T10:50:02.945Z,4.55
2023-05-02T10:52:33.927Z,2.50
2023-05-02T10:55:21.128Z,2.38
2023-05-02T10:58:06.432Z,3.17
2023-05-02T11:00:34.427Z,4.22
2023-05-02T11:03:02.423Z,4.28
2023-05-02T11:05:29.554Z,3.88
2023-05-02T11:08:14.899Z,3.55
2023-05-02T11:10:41.794Z,4.53
2023-05-02T11:13:08.558Z,4.85
2023-05-02T11:15:41.207Z,4.68
2023-05-02T11:18:13.291Z,3.30
2023-05-02T11:20:44.983Z,2.35
2023-05-02T11:23:15.150Z,4.18
2023-05-02T11:25:47.318Z,4.13
2023-05-02T11:28:40.486Z,3.22
2023-05-02T11:31:10.013Z,1.98
2023-05-02T11:33:36.767Z,3.35
2023-05-02T11:36:03.800Z,2.13
2023-05-02T11:38:38.679Z,5.38
2023-05-02T11:41:05.664Z,2.00
2023-05-02T11:43:32.899Z,1.13
2023-05-02T11:46:02.482Z,1.70
2023-05-02T11:48:31.014Z,2.63
2023-05-02T11:51:03.527Z,2.47
2023-05-02T11:53:31.434Z,1.60
2023-05-02T11:56:00.266Z,2.05
2023-05-02T11:58:32.022Z,2.38
2023-05-02T12:01:12.902Z,1.65
2023-05-02T12:03:40.997Z,1.55
2023-05-02T12:06:16.439Z,1.90
2023-05-02T12:08:44.628Z,1.70
2023-05-02T12:11:16.315Z,1.73
2023-05-02T12:13:48.337Z,3.03
2023-05-02T12:16:16.794Z,3.33
2023-05-02T12:18:43.970Z,3.13
2023-05-02T12:21:11.010Z,4.38
2023-05-02T12:23:39.642Z,3.85
2023-05-02T12:26:25.514Z,3.80
2023-05-02T12:28:54.705Z,7.15
2023-05-02T12:31:22.575Z,5.07
2023-05-02T12:33:51.653Z,3.72
2023-05-02T12:36:21.513Z,4.43
2023-05-02T12:38:54.542Z,6.60
2023-05-02T12:41:31.809Z,4.60
2023-05-02T12:44:00.546Z,4.10
2023-05-02T12:46:28.283Z,4.25
2023-05-02T12:49:09.507Z,3.33
2023-05-02T12:51:37.712Z,6.00
2023-05-02T12:54:05.002Z,2.10
2023-05-02T12:56:39.890Z,4.15
2023-05-02T12:59:07.751Z,3.13
2023-05-02T13:01:34.640Z,4.38
2023-05-02T13:04:01.468Z,2.90
2023-05-02T13:06:28.260Z,2.28
2023-05-02T13:08:54.882Z,3.80
2023-05-02T13:11:21.806Z,3.85
2023-05-02T13:13:48.410Z,1.75
2023-05-02T13:16:15.041Z,2.40
2023-05-02T13:18:41.742Z,2.80
2023-05-02T13:21:08.709Z,2.72
2023-05-02T13:23:35.306Z,3.22
2023-05-02T13:26:01.911Z,2.17
2023-05-02T13:28:33.023Z,3.58
2023-05-02T13:30:59.727Z,3.70
2023-05-02T13:33:26.320Z,3.55
2023-05-02T13:35:52.926Z,3.33
2023-05-02T13:38:20.544Z,4.20
2023-05-02T13:40:47.333Z,3.08
2023-05-02T13:43:14.455Z,5.50
2023-05-02T13:45:41.204Z,4.60
2023-05-02T13:48:07.820Z,2.97
2023-05-02T13:50:37.203Z,6.47
2023-05-02T13:53:03.776Z,3.85
2023-05-02T13:55:30.335Z,7.63
2023-05-02T13:57:56.928Z,5.57
2023-05-02T14:00:23.538Z,6.13
2023-05-02T14:02:50.262Z,6.60
2023-05-02T14:05:16.936Z,4.82
2023-05-02T14:07:43.660Z,4.25
2023-05-02T14:10:10.520Z,7.03
2023-05-02T14:12:37.103Z,4.43
2023-05-02T14:15:04.305Z,6.75
2023-05-02T14:17:31.998Z,5.85
2023-05-02T14:19:58.670Z,6.30
2023-05-02T14:22:25.510Z,4.75
2023-05-02T14:24:52.096Z,4.90
2023-05-02T14:27:18.769Z,6.18
2023-05-02T14:29:46.330Z,9.30
2023-05-02T14:32:13.744Z,6.90
2023-05-02T14:34:41.569Z,4.95
2023-05-02T14:37:09.003Z,5.57
2023-05-02T14:39:36.843Z,5.85
2023-05-02T14:42:04.228Z,8.88
2023-05-02T14:44:31.087Z,8.32
2023-05-02T14:46:57.829Z,5.43
2023-05-02T14:49:25.274Z,5.65
2023-05-02T14:51:52.588Z,5.85
2023-05-02T14:54:20.123Z,6.00
2023-05-02T14:56:48.015Z,9.63
2023-05-02T14:59:14.634Z,4.63
2023-05-02T15:01:41.251Z,5.68
2023-05-02T15:04:08.605Z,6.55
2023-05-02T15:06:36.163Z,5.45
2023-05-02T15:09:04.646Z,5.28
2023-05-02T15:11:31.482Z,10.38
2023-05-02T15:13:59.407Z,5.20
2023-05-02T15:16:29.375Z,5.65
2023-05-02T15:18:56.104Z,5.95
2023-05-02T15:21:22.885Z,3.72
2023-05-02T15:23:49.528Z,4.57
2023-05-02T15:26:16.184Z,8.10
2023-05-02T15:28:42.934Z,5.97
2023-05-02T15:31:09.641Z,5.57
2023-05-02T15:33:37.739Z,5.95
2023-05-02T15:36:04.670Z,7.20
2023-05-02T15:38:31.282Z,5.80
2023-05-02T15:41:00.093Z,5.53
2023-05-02T15:43:27.404Z,7.75
2023-05-02T15:45:57.170Z,13.45
2023-05-02T15:48:27.515Z,8.32
2023-05-02T15:50:54.255Z,4.43
2023-05-02T15:53:23.835Z,8.13
2023-05-02T15:55:52.035Z,4.55
2023-05-02T15:58:19.283Z,5.05
2023-05-02T16:00:47.409Z,5.32
2023-05-02T16:03:15.383Z,4.30
2023-05-02T16:05:42.202Z,6.05
2023-05-02T16:08:08.864Z,5.68
2023-05-02T16:10:36.428Z,8.02
2023-05-02T16:13:03.237Z,8.13
2023-05-02T16:15:30.282Z,9.05
2023-05-02T16:17:57.162Z,6.07
2023-05-02T16:20:23.912Z,5.05
2023-05-02T16:22:51.225Z,4.35
2023-05-02T16:25:18.601Z,4.65
2023-05-02T16:27:45.378Z,5.07
2023-05-02T16:30:12.708Z,6.63
2023-05-02T16:32:39.466Z,6.35
2023-05-02T16:35:08.184Z,4.72
2023-05-02T16:37:35.655Z,4.53
2023-05-02T16:40:05.382Z,2.28
2023-05-02T16:42:32.740Z,4.50
2023-05-02T16:44:59.417Z,4.70
2023-05-02T16:47:28.173Z,4.82
2023-05-02T16:49:56.126Z,5.43
2023-05-02T16:52:23.195Z,3.47
2023-05-02T16:54:50.295Z,4.15
2023-05-02T16:57:21.124Z,2.78
2023-05-02T16:59:52.259Z,3.60
2023-05-02T17:02:20.809Z,5.13
2023-05-02T17:04:49.184Z,3.35
2023-05-02T17:07:16.729Z,3.40
2023-05-02T17:09:44.479Z,2.70
2023-05-02T17:12:12.331Z,4.35
2023-05-02T17:14:42.155Z,2.75
2023-05-02T17:17:09.842Z,2.72
2023-05-02T17:19:37.362Z,4.95
2023-05-02T17:22:05.289Z,3.55
2023-05-02T17:24:33.082Z,6.07
2023-05-02T17:26:59.990Z,3.88
2023-05-02T17:29:26.648Z,3.55
2023-05-02T17:31:53.245Z,5.05
2023-05-02T17:34:25.480Z,2.50
2023-05-02T17:36:52.106Z,2.95
2023-05-02T17:39:18.749Z,2.38
2023-05-02T17:41:45.327Z,2.58
2023-05-02T17:44:11.907Z,3.35
2023-05-02T17:46:38.538Z,3.03
2023-05-02T17:49:05.177Z,4.28
2023-05-02T17:51:33.671Z,3.22
2023-05-02T17:54:00.808Z,4.82
2023-05-02T17:56:28.352Z,3.83
2023-05-02T17:58:55.307Z,7.90
2023-05-02T18:01:22.064Z,3.83
2023-05-02T18:03:49.799Z,2.00
2023-05-02T18:06:18.003Z,4.85
2023-05-02T18:08:45.258Z,4.05
2023-05-02T18:11:17.660Z,3.50
2023-05-02T18:13:44.603Z,3.95
2023-05-02T18:16:12.134Z,6.65
2023-05-02T18:18:38.880Z,5.22
2023-05-02T18:21:06.031Z,6.18
2023-05-02T18:23:33.558Z,3.33
2023-05-02T18:26:00.475Z,2.67
2023-05-02T18:28:27.202Z,4.13
2023-05-02T18:30:53.789Z,5.40
2023-05-02T18:33:20.583Z,7.00
2023-05-02T18:35:50.534Z,5.22
2023-05-02T18:38:17.382Z,4.53
2023-05-02T18:40:44.165Z,6.90
2023-05-02T18:43:10.895Z,4.47
2023-05-02T18:45:37.468Z,7.03
2023-05-02T18:48:04.268Z,3.72
2023-05-02T18:50:31.144Z,6.70
2023-05-02T18:52:57.732Z,5.78
2023-05-02T18:55:25.187Z,5.55
2023-05-02T18:57:52.160Z,5.03
2023-05-02T19:00:20.074Z,3.88
2023-05-02T19:02:47.431Z,6.75
2023-05-02T19:05:14.854Z,5.50
2023-05-02T19:07:41.463Z,6.38
2023-05-02T19:10:08.650Z,3.75
2023-05-02T19:12:35.319Z,4.05
2023-05-02T19:15:03.036Z,8.13
2023-05-02T19:17:33.218Z,5.00
2023-05-02T19:20:02.048Z,7.13
2023-05-02T19:22:30.303Z,5.05
2023-05-02T19:24:57.438Z,4.57
2023-05-02T19:27:24.289Z,8.50
2023-05-02T19:29:57.980Z,4.47
2023-05-02T19:32:25.077Z,5.78
2023-05-02T19:34:54.341Z,6.85
2023-05-02T19:37:20.942Z,6.88
2023-05-02T19:39:47.525Z,5.72
2023-05-02T19:42:14.357Z,7.43
2023-05-02T19:44:41.123Z,16.13
2023-05-02T19:47:07.785Z,6.28
2023-05-02T19:49:34.541Z,7.00
2023-05-02T19:52:01.157Z,11.30
2023-05-02T19:54:27.749Z,5.18
2023-05-02T19:56:54.338Z,5.38
2023-05-02T19:59:20.975Z,9.90
2023-05-02T20:01:47.677Z,10.60
2023-05-02T20:04:14.355Z,9.38
2023-05-02T20:06:41.118Z,4.97
2023-05-02T20:09:08.172Z,5.72
2023-05-02T20:11:34.795Z,5.55
2023-05-02T20:14:01.458Z,4.25
2023-05-02T20:16:31.056Z,5.10
2023-05-02T20:18:57.965Z,5.68
2023-05-02T20:21:24.755Z,5.53
2023-05-02T20:23:53.957Z,5.68
2023-05-02T20:26:21.232Z,4.55
2023-05-02T20:28:47.865Z,5.40
2023-05-02T20:31:14.601Z,10.68
2023-05-02T20:33:45.412Z,9.45
2023-05-02T20:36:13.420Z,5.18
2023-05-02T20:38:42.210Z,7.60
2023-05-02T20:41:13.118Z,4.90
2023-05-02T20:43:41.402Z,7.80
2023-05-02T20:46:13.785Z,3.05
2023-05-02T20:48:52.082Z,7.28
2023-05-02T20:51:18.680Z,5.72
2023-05-02T20:53:45.338Z,6.32
2023-05-02T20:56:11.947Z,8.52
2023-05-02T20:58:38.522Z,6.72
2023-05-02T21:01:05.804Z,4.70
2023-05-02T21:03:36.356Z,9.70
2023-05-02T21:06:08.439Z,8.43
2023-05-02T21:08:35.106Z,4.25
2023-05-02T21:11:01.708Z,7.50
2023-05-02T21:13:28.388Z,8.82
2023-05-02T21:15:55.168Z,7.82
2023-05-02T21:18:21.756Z,7.75
2023-05-02T21:20:48.958Z,4.03
2023-05-02T21:23:15.594Z,7.35
2023-05-02T21:25:42.225Z,3.97
2023-05-02T21:28:08.829Z,5.70
2023-05-02T21:30:35.516Z,9.07
2023-05-02T21:33:05.063Z,8.35
2023-05-02T21:35:33.967Z,5.93
2023-05-02T21:38:01.468Z,8.73
2023-05-02T21:40:29.245Z,5.32
2023-05-02T21:42:55.885Z,7.78
2023-05-02T21:45:22.505Z,6.57
2023-05-02T21:47:49.128Z,8.57
2023-05-02T21:50:16.637Z,8.48
2023-05-02T21:52:46.625Z,7.05
2023-05-02T21:55:13.282Z,7.65
2023-05-02T21:57:40.829Z,5.38
2023-05-02T22:00:11.437Z,7.25
2023-05-02T22:02:38.132Z,5.95
2023-05-02T22:05:05.272Z,13.70
2023-05-02T22:07:31.921Z,11.68
2023-05-02T22:09:58.480Z,10.18
2023-05-02T22:12:26.708Z,9.50
2023-05-02T22:14:53.304Z,8.10
2023-05-02T22:17:21.511Z,7.05
2023-05-02T22:19:50.096Z,11.65
2023-05-02T22:22:16.788Z,10.15
2023-05-02T22:24:43.551Z,9.60
2023-05-02T22:27:10.277Z,7.25
2023-05-02T22:29:36.845Z,14.55
2023-05-02T22:32:03.602Z,11.35
2023-05-02T22:34:30.402Z,12.55
2023-05-02T22:36:56.995Z,7.68
2023-05-02T22:39:23.967Z,12.52
2023-05-02T22:41:50.584Z,8.73
2023-05-02T22:44:17.264Z,9.75
2023-05-02T22:46:43.933Z,15.32
2023-05-02T22:49:11.052Z,8.73
2023-05-02T22:51:41.666Z,11.98
2023-05-02T22:54:08.387Z,10.23
2023-05-02T22:56:35.204Z,9.75
2023-05-02T22:59:01.919Z,12.57
2023-05-02T23:01:28.714Z,8.43
2023-05-02T23:03:55.490Z,9.70
2023-05-02T23:06:22.234Z,13.57
2023-05-02T23:08:51.239Z,11.10
2023-05-02T23:11:17.834Z,8.75
2023-05-02T23:13:44.472Z,12.40
2023-05-02T23:16:11.182Z,7.05
2023-05-02T23:18:37.797Z,8.75
2023-05-02T23:21:04.780Z,10.07
2023-05-02T23:23:33.387Z,9.50
2023-05-02T23:26:00.291Z,9.25
2023-05-02T23:28:26.938Z,8.13
2023-05-02T23:30:53.779Z,5.03
2023-05-02T23:33:20.991Z,5.22
2023-05-02T23:35:48.239Z,10.75
2023-05-02T23:38:15.253Z,10.73
2023-05-02T23:40:41.844Z,7.28
2023-05-02T23:43:08.886Z,8.73
2023-05-02T23:45:35.797Z,6.47
2023-05-02T23:48:02.438Z,13.38
2023-05-02T23:50:29.084Z,5.50
2023-05-02T23:52:55.704Z,8.02
2023-05-02T23:55:22.381Z,7.10
2023-05-02T23:57:49.009Z,5.55
